Airfield :
LOGIN :

Register | Disclaimer

   EN    FR    IT 

 










Legend :    VFR   Marginal VFR   IFR   Intensive IFR   Very Intensive IFR
Visi :
Ceiling :
>= 8 km
>= 3000ft
5 to 8 km
1000 to 3000 ft
1500m to 5 km
500 to 1000 ft
800 to 1500m
200 to 500 ft
< 800m
< 200 ft
Symbols :   Thunderstorms  Fog  Heavy snow  Heavy precipitations  Wind > 20 kt
SIGMETs :     Misc.  Thunderstorms  Icing  Turbulence  Mountain Waves  Volcanic Ashes






- Airport Elevation : 46 ft
- IATA code : SNN


EINN - Shannon

CURRENT METAR :
  • 270030Z 30008KT 9999 SCT012 BKN018 15/13 Q1010 NOSIG

EXPIRED METARs :
  • 270000Z 30008KT 250V330 9999 SCT012 BKN025 15/13 Q1010 NOSIG
  • 262330Z 29007KT 9999 SCT012 BKN025 15/13 Q1010 NOSIG
  • 262300Z 29006KT 9999 SCT012 BKN100 15/13 Q1010 NOSIG
  • 262230Z 30007KT 280V340 9999 FEW012 BKN037 15/13 Q1011 NOSIG
  • 262200Z 30008KT 9999 FEW012 BKN030 15/13 Q1011 NOSIG

TAF TAF EINN
Valid from the 27 at 00:00 until the 28 at 00:00 UTC


262300Z 2700/2724 31012KT 9999 SCT012
PROB30
TEMPO 2700/2704 4000 -SHRA BKN010
BECMG 2719/2721 24010KT



MET'MAP, your aeronautical weather chart ! - Copyright ORBIFLY December 2007 - Disclaimer

ORBIFLY MET'MAP TEAM :

Programming & Development : Alexandra Zaïnal
Concept & original design : Baudouin d'Aumeries
Assistance for programming : Marc-Olivier Méhu
Technical & hardware support : Manuel Goepfert

Contact : metmap@orbifly.com




SOURCES & CREDITS :

   NOAA